sensor_id;sensor_type;location;lat;lon;timestamp;P1;durP1;ratioP1;P2;durP2;ratioP2
45408;SDS011;31162;51.076;3.784;2022-12-16T00:01:30;74.72;;;45.95;;
45408;SDS011;31162;51.076;3.784;2022-12-16T00:03:56;68.32;;;43.78;;
45408;SDS011;31162;51.076;3.784;2022-12-16T00:06:25;70.85;;;46.47;;
45408;SDS011;31162;51.076;3.784;2022-12-16T00:08:53;74.65;;;44.53;;
45408;SDS011;31162;51.076;3.784;2022-12-16T00:11:19;76.18;;;45.10;;
45408;SDS011;31162;51.076;3.784;2022-12-16T00:13:45;73.72;;;43.63;;
45408;SDS011;31162;51.076;3.784;2022-12-16T00:16:12;69.30;;;43.25;;
45408;SDS011;31162;51.076;3.784;2022-12-16T00:18:39;68.90;;;43.55;;
45408;SDS011;31162;51.076;3.784;2022-12-16T00:21:05;76.03;;;47.38;;
45408;SDS011;31162;51.076;3.784;2022-12-16T00:23:32;72.75;;;46.75;;
45408;SDS011;31162;51.076;3.784;2022-12-16T00:25:59;74.45;;;46.38;;
45408;SDS011;31162;51.076;3.784;2022-12-16T00:28:25;73.80;;;46.08;;
45408;SDS011;31162;51.076;3.784;2022-12-16T00:30:51;69.88;;;45.13;;
45408;SDS011;31162;51.076;3.784;2022-12-16T00:33:19;73.55;;;45.35;;
45408;SDS011;31162;51.076;3.784;2022-12-16T00:35:46;71.43;;;44.85;;
45408;SDS011;31162;51.076;3.784;2022-12-16T00:38:12;68.90;;;44.17;;
45408;SDS011;31162;51.076;3.784;2022-12-16T00:40:39;77.20;;;46.63;;
45408;SDS011;31162;51.076;3.784;2022-12-16T00:43:05;75.72;;;46.10;;
45408;SDS011;31162;51.076;3.784;2022-12-16T00:45:31;75.03;;;47.17;;
45408;SDS011;31162;51.076;3.784;2022-12-16T00:47:56;75.70;;;48.88;;
45408;SDS011;31162;51.076;3.784;2022-12-16T00:50:22;74.15;;;47.53;;
45408;SDS011;31162;51.076;3.784;2022-12-16T00:52:49;70.88;;;42.58;;
45408;SDS011;31162;51.076;3.784;2022-12-16T00:55:15;64.35;;;40.53;;
45408;SDS011;31162;51.076;3.784;2022-12-16T00:57:41;59.00;;;36.10;;
45408;SDS011;31162;51.076;3.784;2022-12-16T01:00:08;53.17;;;34.58;;
45408;SDS011;31162;51.076;3.784;2022-12-16T01:02:42;49.45;;;32.50;;
45408;SDS011;31162;51.076;3.784;2022-12-16T01:05:09;51.25;;;32.72;;
45408;SDS011;31162;51.076;3.784;2022-12-16T01:07:36;52.80;;;32.83;;
45408;SDS011;31162;51.076;3.784;2022-12-16T01:10:03;54.50;;;33.55;;
45408;SDS011;31162;51.076;3.784;2022-12-16T01:12:30;52.00;;;32.72;;
45408;SDS011;31162;51.076;3.784;2022-12-16T01:14:56;48.97;;;32.30;;
45408;SDS011;31162;51.076;3.784;2022-12-16T01:17:22;53.20;;;32.13;;
45408;SDS011;31162;51.076;3.784;2022-12-16T01:19:50;54.30;;;32.38;;
45408;SDS011;31162;51.076;3.784;2022-12-16T01:22:16;44.83;;;29.15;;
45408;SDS011;31162;51.076;3.784;2022-12-16T01:24:42;47.13;;;31.10;;
45408;SDS011;31162;51.076;3.784;2022-12-16T01:27:08;48.88;;;28.92;;
45408;SDS011;31162;51.076;3.784;2022-12-16T01:29:34;44.10;;;28.52;;
45408;SDS011;31162;51.076;3.784;2022-12-16T01:32:00;45.97;;;29.08;;
45408;SDS011;31162;51.076;3.784;2022-12-16T01:34:26;42.58;;;27.10;;
45408;SDS011;31162;51.076;3.784;2022-12-16T01:36:51;40.70;;;27.42;;
45408;SDS011;31162;51.076;3.784;2022-12-16T01:39:17;42.72;;;25.80;;
45408;SDS011;31162;51.076;3.784;2022-12-16T01:41:43;40.58;;;25.13;;
45408;SDS011;31162;51.076;3.784;2022-12-16T01:44:16;37.90;;;26.08;;
45408;SDS011;31162;51.076;3.784;2022-12-16T01:46:50;38.83;;;24.33;;
45408;SDS011;31162;51.076;3.784;2022-12-16T01:52:07;36.45;;;21.38;;
45408;SDS011;31162;51.076;3.784;2022-12-16T01:54:38;33.33;;;21.40;;
45408;SDS011;31162;51.076;3.784;2022-12-16T01:57:15;33.63;;;20.90;;
45408;SDS011;31162;51.076;3.784;2022-12-16T01:59:45;31.17;;;19.15;;
45408;SDS011;31162;51.076;3.784;2022-12-16T02:02:13;34.10;;;19.38;;
45408;SDS011;31162;51.076;3.784;2022-12-16T02:04:39;31.70;;;18.10;;
45408;SDS011;31162;51.076;3.784;2022-12-16T02:07:25;22.98;;;15.27;;
45408;SDS011;31162;51.076;3.784;2022-12-16T02:09:50;22.95;;;14.55;;
45408;SDS011;31162;51.076;3.784;2022-12-16T02:15:06;22.63;;;13.02;;
45408;SDS011;31162;51.076;3.784;2022-12-16T02:17:54;22.10;;;12.23;;
45408;SDS011;31162;51.076;3.784;2022-12-16T02:42:21;23.88;;;8.57;;
45408;SDS011;31162;51.076;3.784;2022-12-16T02:45:03;23.40;;;9.65;;
45408;SDS011;31162;51.076;3.784;2022-12-16T02:47:33;15.02;;;7.97;;
45408;SDS011;31162;51.076;3.784;2022-12-16T02:49:59;14.30;;;6.50;;
45408;SDS011;31162;51.076;3.784;2022-12-16T02:52:25;12.27;;;5.95;;
45408;SDS011;31162;51.076;3.784;2022-12-16T02:54:58;14.30;;;5.35;;
45408;SDS011;31162;51.076;3.784;2022-12-16T02:57:39;9.10;;;4.93;;
45408;SDS011;31162;51.076;3.784;2022-12-16T03:00:24;11.25;;;5.35;;
45408;SDS011;31162;51.076;3.784;2022-12-16T03:02:55;17.88;;;5.85;;
45408;SDS011;31162;51.076;3.784;2022-12-16T03:05:43;14.40;;;5.65;;
45408;SDS011;31162;51.076;3.784;2022-12-16T03:08:20;10.63;;;5.43;;
45408;SDS011;31162;51.076;3.784;2022-12-16T03:10:59;11.88;;;5.13;;
45408;SDS011;31162;51.076;3.784;2022-12-16T03:13:28;13.75;;;5.88;;
45408;SDS011;31162;51.076;3.784;2022-12-16T03:15:59;13.98;;;5.38;;
45408;SDS011;31162;51.076;3.784;2022-12-16T03:18:27;12.48;;;5.45;;
45408;SDS011;31162;51.076;3.784;2022-12-16T03:21:00;10.98;;;5.90;;
45408;SDS011;31162;51.076;3.784;2022-12-16T03:23:30;13.40;;;6.32;;
45408;SDS011;31162;51.076;3.784;2022-12-16T03:26:02;16.52;;;5.82;;
45408;SDS011;31162;51.076;3.784;2022-12-16T03:31:07;13.95;;;6.50;;
45408;SDS011;31162;51.076;3.784;2022-12-16T03:33:48;10.68;;;6.28;;
45408;SDS011;31162;51.076;3.784;2022-12-16T03:36:23;12.82;;;5.85;;
45408;SDS011;31162;51.076;3.784;2022-12-16T03:38:50;16.15;;;6.47;;
45408;SDS011;31162;51.076;3.784;2022-12-16T03:41:17;11.65;;;6.68;;
45408;SDS011;31162;51.076;3.784;2022-12-16T03:43:47;11.30;;;6.50;;
45408;SDS011;31162;51.076;3.784;2022-12-16T03:46:13;12.60;;;6.78;;
45408;SDS011;31162;51.076;3.784;2022-12-16T03:48:47;12.35;;;7.05;;
45408;SDS011;31162;51.076;3.784;2022-12-16T03:51:14;11.55;;;7.05;;
45408;SDS011;31162;51.076;3.784;2022-12-16T03:53:41;12.57;;;7.75;;
45408;SDS011;31162;51.076;3.784;2022-12-16T03:56:07;14.05;;;9.00;;
45408;SDS011;31162;51.076;3.784;2022-12-16T03:58:33;13.32;;;9.52;;
45408;SDS011;31162;51.076;3.784;2022-12-16T04:00:59;20.30;;;10.93;;
45408;SDS011;31162;51.076;3.784;2022-12-16T04:03:25;20.02;;;11.52;;
45408;SDS011;31162;51.076;3.784;2022-12-16T04:05:51;13.65;;;11.30;;
45408;SDS011;31162;51.076;3.784;2022-12-16T04:08:16;19.98;;;12.30;;
45408;SDS011;31162;51.076;3.784;2022-12-16T04:10:42;15.48;;;11.65;;
45408;SDS011;31162;51.076;3.784;2022-12-16T04:13:26;16.80;;;10.65;;
45408;SDS011;31162;51.076;3.784;2022-12-16T04:16:13;17.52;;;10.80;;
45408;SDS011;31162;51.076;3.784;2022-12-16T04:18:59;19.02;;;9.82;;
45408;SDS011;31162;51.076;3.784;2022-12-16T04:21:44;18.33;;;10.57;;
45408;SDS011;31162;51.076;3.784;2022-12-16T04:24:28;15.13;;;10.15;;
45408;SDS011;31162;51.076;3.784;2022-12-16T04:26:54;13.57;;;10.27;;
45408;SDS011;31162;51.076;3.784;2022-12-16T04:29:39;17.50;;;10.98;;
45408;SDS011;31162;51.076;3.784;2022-12-16T04:32:23;14.65;;;11.23;;
45408;SDS011;31162;51.076;3.784;2022-12-16T04:34:49;15.75;;;10.60;;
45408;SDS011;31162;51.076;3.784;2022-12-16T04:37:16;16.45;;;11.10;;
45408;SDS011;31162;51.076;3.784;2022-12-16T04:40:00;16.50;;;12.00;;
45408;SDS011;31162;51.076;3.784;2022-12-16T04:42:44;18.35;;;12.88;;
45408;SDS011;31162;51.076;3.784;2022-12-16T04:45:28;18.77;;;11.88;;
45408;SDS011;31162;51.076;3.784;2022-12-16T04:48:12;17.80;;;12.63;;
45408;SDS011;31162;51.076;3.784;2022-12-16T04:50:56;19.02;;;12.93;;
45408;SDS011;31162;51.076;3.784;2022-12-16T04:53:40;20.15;;;12.15;;
45408;SDS011;31162;51.076;3.784;2022-12-16T04:56:24;20.20;;;13.52;;
45408;SDS011;31162;51.076;3.784;2022-12-16T04:59:08;20.45;;;12.48;;
45408;SDS011;31162;51.076;3.784;2022-12-16T05:01:52;20.88;;;12.93;;
45408;SDS011;31162;51.076;3.784;2022-12-16T05:04:36;20.70;;;12.85;;
45408;SDS011;31162;51.076;3.784;2022-12-16T05:07:40;18.52;;;12.70;;
45408;SDS011;31162;51.076;3.784;2022-12-16T05:10:24;18.52;;;12.60;;
45408;SDS011;31162;51.076;3.784;2022-12-16T05:13:09;17.60;;;12.25;;
45408;SDS011;31162;51.076;3.784;2022-12-16T05:15:53;17.90;;;12.45;;
45408;SDS011;31162;51.076;3.784;2022-12-16T05:18:37;20.48;;;13.57;;
45408;SDS011;31162;51.076;3.784;2022-12-16T05:21:21;20.55;;;12.85;;
45408;SDS011;31162;51.076;3.784;2022-12-16T05:24:05;16.20;;;11.55;;
45408;SDS011;31162;51.076;3.784;2022-12-16T05:26:49;18.73;;;11.55;;
45408;SDS011;31162;51.076;3.784;2022-12-16T05:29:33;21.77;;;12.25;;
45408;SDS011;31162;51.076;3.784;2022-12-16T05:32:17;20.60;;;12.70;;
45408;SDS011;31162;51.076;3.784;2022-12-16T05:35:01;20.65;;;11.73;;
45408;SDS011;31162;51.076;3.784;2022-12-16T05:37:45;15.25;;;11.05;;
45408;SDS011;31162;51.076;3.784;2022-12-16T05:40:29;17.35;;;11.05;;
45408;SDS011;31162;51.076;3.784;2022-12-16T05:43:16;13.85;;;9.57;;
45408;SDS011;31162;51.076;3.784;2022-12-16T05:46:00;15.00;;;10.07;;
45408;SDS011;31162;51.076;3.784;2022-12-16T05:48:44;13.70;;;10.20;;
45408;SDS011;31162;51.076;3.784;2022-12-16T05:51:28;13.93;;;10.15;;
45408;SDS011;31162;51.076;3.784;2022-12-16T05:54:12;12.25;;;9.48;;
45408;SDS011;31162;51.076;3.784;2022-12-16T05:56:56;16.02;;;9.93;;
45408;SDS011;31162;51.076;3.784;2022-12-16T05:59:40;14.52;;;8.98;;
45408;SDS011;31162;51.076;3.784;2022-12-16T06:02:24;13.68;;;8.80;;
45408;SDS011;31162;51.076;3.784;2022-12-16T06:05:08;15.02;;;9.13;;
45408;SDS011;31162;51.076;3.784;2022-12-16T06:07:52;14.20;;;9.98;;
45408;SDS011;31162;51.076;3.784;2022-12-16T06:10:36;19.52;;;9.57;;
45408;SDS011;31162;51.076;3.784;2022-12-16T06:13:21;10.45;;;8.80;;
45408;SDS011;31162;51.076;3.784;2022-12-16T06:16:05;13.23;;;8.82;;
45408;SDS011;31162;51.076;3.784;2022-12-16T06:18:49;15.38;;;11.05;;
45408;SDS011;31162;51.076;3.784;2022-12-16T06:21:33;18.90;;;12.13;;
45408;SDS011;31162;51.076;3.784;2022-12-16T06:24:17;14.18;;;11.05;;
45408;SDS011;31162;51.076;3.784;2022-12-16T06:27:01;14.32;;;11.60;;
45408;SDS011;31162;51.076;3.784;2022-12-16T06:29:45;19.50;;;12.10;;
45408;SDS011;31162;51.076;3.784;2022-12-16T06:32:29;16.35;;;11.57;;
45408;SDS011;31162;51.076;3.784;2022-12-16T06:35:13;16.30;;;10.27;;
45408;SDS011;31162;51.076;3.784;2022-12-16T06:38:02;18.60;;;9.68;;
45408;SDS011;31162;51.076;3.784;2022-12-16T06:40:46;14.40;;;10.07;;
45408;SDS011;31162;51.076;3.784;2022-12-16T06:43:30;15.02;;;9.85;;
45408;SDS011;31162;51.076;3.784;2022-12-16T06:46:14;18.73;;;9.77;;
45408;SDS011;31162;51.076;3.784;2022-12-16T06:48:58;13.98;;;9.50;;
45408;SDS011;31162;51.076;3.784;2022-12-16T06:51:42;15.48;;;9.80;;
45408;SDS011;31162;51.076;3.784;2022-12-16T06:54:26;16.60;;;10.18;;
45408;SDS011;31162;51.076;3.784;2022-12-16T06:57:10;21.52;;;10.68;;
45408;SDS011;31162;51.076;3.784;2022-12-16T06:59:55;11.38;;;9.30;;
45408;SDS011;31162;51.076;3.784;2022-12-16T07:02:39;13.48;;;9.05;;
45408;SDS011;31162;51.076;3.784;2022-12-16T07:05:23;136.63;;;94.70;;
45408;SDS011;31162;51.076;3.784;2022-12-16T07:08:07;35.50;;;23.70;;
45408;SDS011;31162;51.076;3.784;2022-12-16T07:10:51;14.98;;;11.07;;
45408;SDS011;31162;51.076;3.784;2022-12-16T07:13:35;78.85;;;50.35;;
45408;SDS011;31162;51.076;3.784;2022-12-16T07:16:19;18.30;;;11.43;;
45408;SDS011;31162;51.076;3.784;2022-12-16T07:19:03;18.02;;;11.27;;
45408;SDS011;31162;51.076;3.784;2022-12-16T07:21:47;16.92;;;11.60;;
45408;SDS011;31162;51.076;3.784;2022-12-16T07:24:31;17.40;;;10.50;;
45408;SDS011;31162;51.076;3.784;2022-12-16T07:27:15;15.13;;;10.50;;
45408;SDS011;31162;51.076;3.784;2022-12-16T07:29:59;14.38;;;10.45;;
45408;SDS011;31162;51.076;3.784;2022-12-16T07:32:44;13.85;;;9.43;;
45408;SDS011;31162;51.076;3.784;2022-12-16T07:35:33;15.65;;;10.52;;
45408;SDS011;31162;51.076;3.784;2022-12-16T07:38:16;30.30;;;19.60;;
45408;SDS011;31162;51.076;3.784;2022-12-16T07:41:00;19.77;;;11.60;;
45408;SDS011;31162;51.076;3.784;2022-12-16T07:43:44;17.65;;;10.45;;
45408;SDS011;31162;51.076;3.784;2022-12-16T07:46:29;16.30;;;9.90;;
45408;SDS011;31162;51.076;3.784;2022-12-16T07:49:12;18.52;;;11.10;;
45408;SDS011;31162;51.076;3.784;2022-12-16T07:51:56;16.98;;;11.60;;
45408;SDS011;31162;51.076;3.784;2022-12-16T07:54:40;19.50;;;11.77;;
45408;SDS011;31162;51.076;3.784;2022-12-16T07:57:24;22.15;;;12.55;;
45408;SDS011;31162;51.076;3.784;2022-12-16T08:00:08;21.33;;;13.70;;
45408;SDS011;31162;51.076;3.784;2022-12-16T08:02:53;21.33;;;15.00;;
45408;SDS011;31162;51.076;3.784;2022-12-16T08:05:37;20.50;;;13.38;;
45408;SDS011;31162;51.076;3.784;2022-12-16T08:08:23;23.90;;;13.90;;
45408;SDS011;31162;51.076;3.784;2022-12-16T08:11:07;26.00;;;13.77;;
45408;SDS011;31162;51.076;3.784;2022-12-16T08:13:51;22.98;;;13.45;;
45408;SDS011;31162;51.076;3.784;2022-12-16T08:16:35;25.92;;;14.52;;
45408;SDS011;31162;51.076;3.784;2022-12-16T08:19:19;25.70;;;13.85;;
45408;SDS011;31162;51.076;3.784;2022-12-16T08:22:03;28.15;;;15.20;;
45408;SDS011;31162;51.076;3.784;2022-12-16T08:24:47;26.00;;;16.73;;
45408;SDS011;31162;51.076;3.784;2022-12-16T08:27:31;27.17;;;16.38;;
45408;SDS011;31162;51.076;3.784;2022-12-16T08:30:15;28.23;;;18.50;;
45408;SDS011;31162;51.076;3.784;2022-12-16T08:32:59;31.52;;;18.60;;
45408;SDS011;31162;51.076;3.784;2022-12-16T08:35:43;30.92;;;20.88;;
45408;SDS011;31162;51.076;3.784;2022-12-16T08:38:27;52.85;;;35.03;;
45408;SDS011;31162;51.076;3.784;2022-12-16T08:41:11;45.13;;;30.42;;
45408;SDS011;31162;51.076;3.784;2022-12-16T08:43:55;34.15;;;19.77;;
45408;SDS011;31162;51.076;3.784;2022-12-16T08:46:38;30.52;;;23.40;;
45408;SDS011;31162;51.076;3.784;2022-12-16T08:49:39;35.20;;;22.63;;
45408;SDS011;31162;51.076;3.784;2022-12-16T08:52:24;30.88;;;20.27;;
45408;SDS011;31162;51.076;3.784;2022-12-16T08:55:08;27.90;;;19.88;;
45408;SDS011;31162;51.076;3.784;2022-12-16T08:57:55;31.77;;;20.73;;
45408;SDS011;31162;51.076;3.784;2022-12-16T09:00:39;36.05;;;22.65;;
45408;SDS011;31162;51.076;3.784;2022-12-16T09:03:23;37.17;;;24.90;;
45408;SDS011;31162;51.076;3.784;2022-12-16T09:06:07;38.67;;;24.92;;
45408;SDS011;31162;51.076;3.784;2022-12-16T09:08:51;41.50;;;28.23;;
45408;SDS011;31162;51.076;3.784;2022-12-16T09:11:35;34.40;;;25.83;;
45408;SDS011;31162;51.076;3.784;2022-12-16T09:14:20;34.15;;;25.35;;
45408;SDS011;31162;51.076;3.784;2022-12-16T09:17:04;36.83;;;24.98;;
45408;SDS011;31162;51.076;3.784;2022-12-16T09:19:48;37.65;;;25.58;;
45408;SDS011;31162;51.076;3.784;2022-12-16T09:22:32;42.45;;;25.17;;
45408;SDS011;31162;51.076;3.784;2022-12-16T09:25:20;38.92;;;25.77;;
45408;SDS011;31162;51.076;3.784;2022-12-16T09:28:04;40.78;;;26.67;;
45408;SDS011;31162;51.076;3.784;2022-12-16T09:30:48;35.55;;;25.17;;
45408;SDS011;31162;51.076;3.784;2022-12-16T09:33:32;35.47;;;24.38;;
45408;SDS011;31162;51.076;3.784;2022-12-16T09:36:17;41.60;;;25.15;;
45408;SDS011;31162;51.076;3.784;2022-12-16T09:39:01;41.50;;;24.63;;
45408;SDS011;31162;51.076;3.784;2022-12-16T09:41:54;36.13;;;22.65;;
45408;SDS011;31162;51.076;3.784;2022-12-16T09:50:46;32.85;;;19.48;;
45408;SDS011;31162;51.076;3.784;2022-12-16T09:53:33;33.30;;;18.35;;
45408;SDS011;31162;51.076;3.784;2022-12-16T09:56:25;29.85;;;17.60;;
45408;SDS011;31162;51.076;3.784;2022-12-16T09:59:14;22.88;;;18.02;;
45408;SDS011;31162;51.076;3.784;2022-12-16T10:02:14;33.45;;;18.20;;
45408;SDS011;31162;51.076;3.784;2022-12-16T10:05:01;24.38;;;17.30;;
45408;SDS011;31162;51.076;3.784;2022-12-16T10:07:54;24.47;;;16.47;;
45408;SDS011;31162;51.076;3.784;2022-12-16T10:10:49;23.00;;;15.82;;
45408;SDS011;31162;51.076;3.784;2022-12-16T10:14:08;23.55;;;16.48;;
45408;SDS011;31162;51.076;3.784;2022-12-16T10:17:08;23.70;;;15.48;;
45408;SDS011;31162;51.076;3.784;2022-12-16T10:20:03;25.08;;;18.45;;
45408;SDS011;31162;51.076;3.784;2022-12-16T10:23:02;24.33;;;16.85;;
45408;SDS011;31162;51.076;3.784;2022-12-16T10:26:16;22.10;;;15.38;;
45408;SDS011;31162;51.076;3.784;2022-12-16T10:29:05;21.83;;;14.80;;
45408;SDS011;31162;51.076;3.784;2022-12-16T10:32:01;20.65;;;14.13;;
45408;SDS011;31162;51.076;3.784;2022-12-16T10:35:00;21.23;;;14.98;;
45408;SDS011;31162;51.076;3.784;2022-12-16T10:37:49;21.35;;;13.75;;
45408;SDS011;31162;51.076;3.784;2022-12-16T10:40:33;17.67;;;12.88;;
45408;SDS011;31162;51.076;3.784;2022-12-16T10:43:20;18.30;;;12.07;;
45408;SDS011;31162;51.076;3.784;2022-12-16T10:46:18;14.15;;;11.40;;
45408;SDS011;31162;51.076;3.784;2022-12-16T10:49:06;11.27;;;9.32;;
45408;SDS011;31162;51.076;3.784;2022-12-16T10:51:56;12.85;;;8.00;;
45408;SDS011;31162;51.076;3.784;2022-12-16T10:54:45;12.68;;;7.40;;
45408;SDS011;31162;51.076;3.784;2022-12-16T10:58:05;8.45;;;6.53;;
45408;SDS011;31162;51.076;3.784;2022-12-16T11:01:26;12.27;;;6.47;;
45408;SDS011;31162;51.076;3.784;2022-12-16T11:07:37;10.80;;;5.88;;
45408;SDS011;31162;51.076;3.784;2022-12-16T11:10:36;8.63;;;5.97;;
45408;SDS011;31162;51.076;3.784;2022-12-16T11:13:32;8.13;;;4.72;;
45408;SDS011;31162;51.076;3.784;2022-12-16T11:16:19;11.82;;;4.55;;
45408;SDS011;31162;51.076;3.784;2022-12-16T11:19:04;9.35;;;4.18;;
45408;SDS011;31162;51.076;3.784;2022-12-16T11:22:20;7.80;;;4.10;;
45408;SDS011;31162;51.076;3.784;2022-12-16T11:25:16;8.55;;;5.95;;
45408;SDS011;31162;51.076;3.784;2022-12-16T11:31:06;6.32;;;4.20;;
45408;SDS011;31162;51.076;3.784;2022-12-16T11:33:56;5.35;;;3.67;;
45408;SDS011;31162;51.076;3.784;2022-12-16T11:36:42;5.40;;;3.70;;
45408;SDS011;31162;51.076;3.784;2022-12-16T11:39:28;6.80;;;4.07;;
45408;SDS011;31162;51.076;3.784;2022-12-16T11:42:17;31.50;;;21.35;;
45408;SDS011;31162;51.076;3.784;2022-12-16T11:45:04;7.75;;;4.75;;
45408;SDS011;31162;51.076;3.784;2022-12-16T11:47:50;7.65;;;4.53;;
45408;SDS011;31162;51.076;3.784;2022-12-16T11:50:37;13.57;;;5.80;;
45408;SDS011;31162;51.076;3.784;2022-12-16T11:53:32;31.98;;;21.58;;
45408;SDS011;31162;51.076;3.784;2022-12-16T11:59:10;10.05;;;5.45;;
45408;SDS011;31162;51.076;3.784;2022-12-16T12:02:11;12.77;;;3.88;;
45408;SDS011;31162;51.076;3.784;2022-12-16T12:04:59;12.15;;;4.43;;
45408;SDS011;31162;51.076;3.784;2022-12-16T12:14:11;16.95;;;5.72;;
45408;SDS011;31162;51.076;3.784;2022-12-16T12:23:05;6.38;;;3.33;;
45408;SDS011;31162;51.076;3.784;2022-12-16T12:28:55;8.73;;;3.78;;
45408;SDS011;31162;51.076;3.784;2022-12-16T12:37:44;5.18;;;4.03;;
45408;SDS011;31162;51.076;3.784;2022-12-16T12:46:55;7.18;;;4.68;;
45408;SDS011;31162;51.076;3.784;2022-12-16T12:56:10;7.18;;;3.60;;
45408;SDS011;31162;51.076;3.784;2022-12-16T12:59:20;6.78;;;3.25;;
45408;SDS011;31162;51.076;3.784;2022-12-16T13:02:22;7.72;;;3.92;;
45408;SDS011;31162;51.076;3.784;2022-12-16T13:05:13;5.00;;;3.33;;
45408;SDS011;31162;51.076;3.784;2022-12-16T13:11:24;6.82;;;3.60;;
45408;SDS011;31162;51.076;3.784;2022-12-16T13:17:14;5.00;;;3.20;;
45408;SDS011;31162;51.076;3.784;2022-12-16T13:19:59;6.15;;;3.50;;
45408;SDS011;31162;51.076;3.784;2022-12-16T13:22:44;4.90;;;3.28;;
45408;SDS011;31162;51.076;3.784;2022-12-16T13:28:39;6.35;;;3.70;;
45408;SDS011;31162;51.076;3.784;2022-12-16T13:31:25;8.80;;;3.42;;
45408;SDS011;31162;51.076;3.784;2022-12-16T13:36:58;5.20;;;2.75;;
45408;SDS011;31162;51.076;3.784;2022-12-16T13:40:02;5.78;;;2.83;;
45408;SDS011;31162;51.076;3.784;2022-12-16T13:42:51;5.90;;;3.22;;
45408;SDS011;31162;51.076;3.784;2022-12-16T13:46:22;7.07;;;3.97;;
45408;SDS011;31162;51.076;3.784;2022-12-16T13:48:44;4.20;;;3.20;;
45408;SDS011;31162;51.076;3.784;2022-12-16T13:57:43;5.47;;;3.65;;
45408;SDS011;31162;51.076;3.784;2022-12-16T14:00:29;5.35;;;4.03;;
45408;SDS011;31162;51.076;3.784;2022-12-16T14:03:21;5.03;;;3.80;;
45408;SDS011;31162;51.076;3.784;2022-12-16T14:06:26;5.05;;;3.78;;
45408;SDS011;31162;51.076;3.784;2022-12-16T14:09:18;4.75;;;4.20;;
45408;SDS011;31162;51.076;3.784;2022-12-16T14:21:47;6.65;;;3.83;;
45408;SDS011;31162;51.076;3.784;2022-12-16T14:24:34;7.78;;;3.83;;
45408;SDS011;31162;51.076;3.784;2022-12-16T14:27:21;6.13;;;4.35;;
45408;SDS011;31162;51.076;3.784;2022-12-16T14:30:39;7.45;;;4.05;;
45408;SDS011;31162;51.076;3.784;2022-12-16T14:33:21;8.70;;;4.25;;
45408;SDS011;31162;51.076;3.784;2022-12-16T14:36:20;5.18;;;3.08;;
45408;SDS011;31162;51.076;3.784;2022-12-16T14:39:08;6.72;;;4.13;;
45408;SDS011;31162;51.076;3.784;2022-12-16T14:42:22;4.95;;;3.53;;
45408;SDS011;31162;51.076;3.784;2022-12-16T14:48:28;7.68;;;3.70;;
45408;SDS011;31162;51.076;3.784;2022-12-16T14:51:50;6.93;;;3.15;;
45408;SDS011;31162;51.076;3.784;2022-12-16T14:54:35;5.38;;;3.50;;
45408;SDS011;31162;51.076;3.784;2022-12-16T14:57:29;4.65;;;3.10;;
45408;SDS011;31162;51.076;3.784;2022-12-16T15:00:16;7.90;;;3.92;;
45408;SDS011;31162;51.076;3.784;2022-12-16T15:03:16;6.18;;;3.67;;
45408;SDS011;31162;51.076;3.784;2022-12-16T15:06:27;5.70;;;3.70;;
45408;SDS011;31162;51.076;3.784;2022-12-16T15:09:25;10.13;;;4.60;;
45408;SDS011;31162;51.076;3.784;2022-12-16T15:12:52;9.35;;;5.10;;
45408;SDS011;31162;51.076;3.784;2022-12-16T15:15:44;10.35;;;4.60;;
45408;SDS011;31162;51.076;3.784;2022-12-16T15:18:35;7.38;;;4.55;;
45408;SDS011;31162;51.076;3.784;2022-12-16T15:21:23;9.68;;;4.30;;
45408;SDS011;31162;51.076;3.784;2022-12-16T15:24:08;11.82;;;5.50;;
45408;SDS011;31162;51.076;3.784;2022-12-16T15:27:14;7.80;;;4.72;;
45408;SDS011;31162;51.076;3.784;2022-12-16T15:33:19;6.40;;;4.30;;
45408;SDS011;31162;51.076;3.784;2022-12-16T15:39:23;8.85;;;5.45;;
45408;SDS011;31162;51.076;3.784;2022-12-16T15:45:04;19.08;;;5.93;;
45408;SDS011;31162;51.076;3.784;2022-12-16T15:48:01;9.35;;;5.03;;
45408;SDS011;31162;51.076;3.784;2022-12-16T15:51:28;12.15;;;5.30;;
45408;SDS011;31162;51.076;3.784;2022-12-16T15:54:15;216.48;;;135.32;;
45408;SDS011;31162;51.076;3.784;2022-12-16T15:57:24;184.32;;;111.35;;
45408;SDS011;31162;51.076;3.784;2022-12-16T16:00:23;18.67;;;12.82;;
45408;SDS011;31162;51.076;3.784;2022-12-16T16:06:17;16.77;;;10.52;;
45408;SDS011;31162;51.076;3.784;2022-12-16T16:09:19;13.95;;;8.38;;
45408;SDS011;31162;51.076;3.784;2022-12-16T16:12:21;16.65;;;10.68;;
45408;SDS011;31162;51.076;3.784;2022-12-16T16:15:07;12.30;;;8.35;;
45408;SDS011;31162;51.076;3.784;2022-12-16T16:17:55;14.38;;;7.65;;
45408;SDS011;31162;51.076;3.784;2022-12-16T16:20:52;13.25;;;7.63;;
45408;SDS011;31162;51.076;3.784;2022-12-16T16:23:36;11.65;;;8.05;;
45408;SDS011;31162;51.076;3.784;2022-12-16T16:26:21;13.02;;;8.63;;
45408;SDS011;31162;51.076;3.784;2022-12-16T16:29:09;12.65;;;10.10;;
45408;SDS011;31162;51.076;3.784;2022-12-16T16:31:53;17.67;;;12.15;;
45408;SDS011;31162;51.076;3.784;2022-12-16T16:34:38;17.40;;;11.80;;
45408;SDS011;31162;51.076;3.784;2022-12-16T16:37:22;14.68;;;9.63;;
45408;SDS011;31162;51.076;3.784;2022-12-16T16:40:26;10.07;;;9.00;;
45408;SDS011;31162;51.076;3.784;2022-12-16T16:43:15;15.82;;;10.55;;
45408;SDS011;31162;51.076;3.784;2022-12-16T16:46:00;15.60;;;11.80;;
45408;SDS011;31162;51.076;3.784;2022-12-16T16:48:44;14.50;;;10.30;;
45408;SDS011;31162;51.076;3.784;2022-12-16T16:51:29;13.88;;;10.00;;
45408;SDS011;31162;51.076;3.784;2022-12-16T16:54:13;16.83;;;10.23;;
45408;SDS011;31162;51.076;3.784;2022-12-16T16:56:58;16.83;;;11.57;;
45408;SDS011;31162;51.076;3.784;2022-12-16T16:59:43;18.65;;;12.20;;
45408;SDS011;31162;51.076;3.784;2022-12-16T17:02:27;20.40;;;12.88;;
45408;SDS011;31162;51.076;3.784;2022-12-16T17:05:11;28.85;;;16.83;;
45408;SDS011;31162;51.076;3.784;2022-12-16T17:07:55;21.00;;;13.45;;
45408;SDS011;31162;51.076;3.784;2022-12-16T17:10:40;24.13;;;14.90;;
45408;SDS011;31162;51.076;3.784;2022-12-16T17:13:24;29.17;;;18.60;;
45408;SDS011;31162;51.076;3.784;2022-12-16T17:16:09;30.50;;;16.13;;
45408;SDS011;31162;51.076;3.784;2022-12-16T17:18:54;32.75;;;19.02;;
45408;SDS011;31162;51.076;3.784;2022-12-16T17:21:39;31.67;;;19.02;;
45408;SDS011;31162;51.076;3.784;2022-12-16T17:24:23;32.42;;;20.38;;
45408;SDS011;31162;51.076;3.784;2022-12-16T17:29:59;28.23;;;20.50;;
45408;SDS011;31162;51.076;3.784;2022-12-16T17:32:43;31.80;;;21.48;;
45408;SDS011;31162;51.076;3.784;2022-12-16T17:35:28;40.55;;;22.70;;
45408;SDS011;31162;51.076;3.784;2022-12-16T17:38:12;33.13;;;22.98;;
45408;SDS011;31162;51.076;3.784;2022-12-16T17:40:56;33.08;;;21.95;;
45408;SDS011;31162;51.076;3.784;2022-12-16T17:43:41;31.88;;;23.20;;
45408;SDS011;31162;51.076;3.784;2022-12-16T17:46:25;38.88;;;24.52;;
45408;SDS011;31162;51.076;3.784;2022-12-16T17:49:09;42.00;;;25.95;;
45408;SDS011;31162;51.076;3.784;2022-12-16T17:51:53;38.13;;;25.50;;
45408;SDS011;31162;51.076;3.784;2022-12-16T17:54:37;49.30;;;31.33;;
45408;SDS011;31162;51.076;3.784;2022-12-16T17:57:21;51.80;;;32.05;;
45408;SDS011;31162;51.076;3.784;2022-12-16T18:00:06;45.92;;;31.52;;
45408;SDS011;31162;51.076;3.784;2022-12-16T18:02:50;52.45;;;32.55;;
45408;SDS011;31162;51.076;3.784;2022-12-16T18:05:34;52.05;;;35.78;;
45408;SDS011;31162;51.076;3.784;2022-12-16T18:08:18;51.47;;;34.42;;
45408;SDS011;31162;51.076;3.784;2022-12-16T18:11:02;46.00;;;32.83;;